Time;durP1;ratioP1;P1;durP2;ratioP2;P2;SDS_P1;SDS_P2;PMS_P1;PMS_P2;Temp;Humidity;BMP_temperature;BMP_pressure;BME280_temperature;BME280_humidity;BME280_pressure;Samples;Min_cycle;Max_cycle;Signal;HPM_P1;HPM_P2
2021/04/03 13:20:36;;;;;;;11.98;3.90;;;;;;;11.82;53.06;102261.31;4970671;28;20058;-88
2021/04/03 13:23:27;;;;;;;14.85;3.83;;;;;;;11.87;51.59;102256.44;4944238;28;20055;-87
2021/04/03 13:25:52;;;;;;;13.85;4.32;;;;;;;12.18;55.17;102254.53;4907942;28;20051;-86
2021/04/03 13:28:22;;;;;;;15.00;3.95;;;;;;;12.48;54.48;102257.25;4939124;28;20501;-87
2021/04/03 13:31:16;;;;;;;12.70;3.60;;;;;;;12.17;52.42;102257.38;4904700;29;20055;-89
2021/04/03 13:34:27;;;;;;;13.65;4.68;;;;;;;11.85;56.58;102244.94;4896242;29;20599;-89
2021/04/03 13:37:28;;;;;;;11.40;3.85;;;;;;;11.73;55.01;102249.56;4874154;29;20040;-88
2021/04/03 13:40:38;;;;;;;13.00;4.88;;;;;;;11.61;53.53;102239.06;4886983;29;20040;-88
2021/04/03 13:46:03;;;;;;;9.88;3.08;;;;;;;12.19;50.16;102242.75;4847741;29;21573;-88
2021/04/03 13:48:30;;;;;;;7.68;2.60;;;;;;;12.33;49.25;102229.88;4771152;29;20050;-87
2021/04/03 13:50:56;;;;;;;8.93;3.15;;;;;;;12.71;52.40;102237.09;4807393;29;20038;-89
2021/04/03 13:53:21;;;;;;;9.32;3.17;;;;;;;12.76;48.99;102234.84;4808575;29;20046;-89
2021/04/03 13:55:50;;;;;;;11.55;3.50;;;;;;;12.82;50.36;102239.66;4855962;29;20154;-89
2021/04/03 13:58:17;;;;;;;12.63;3.95;;;;;;;12.51;52.39;102238.94;4826160;29;20113;-89
2021/04/03 14:00:43;;;;;;;11.40;3.40;;;;;;;12.39;52.90;102229.31;4833680;29;20161;-88
2021/04/03 14:03:08;;;;;;;11.38;3.42;;;;;;;12.28;51.31;102229.47;4772236;29;402365;-89
2021/04/03 14:05:34;;;;;;;10.30;3.33;;;;;;;12.14;53.50;102225.31;4732150;29;1021875;-89
2021/04/03 14:07:59;;;;;;;9.90;3.38;;;;;;;12.52;52.22;102221.81;4745758;29;611053;-89
2021/04/03 14:11:36;;;;;;;6.30;2.70;;;;;;;12.83;49.13;102222.50;5055086;27;20374;-82
2021/04/03 14:14:03;;;;;;;11.20;3.80;;;;;;;12.70;52.82;102219.25;5020128;28;20084;-88
2021/04/03 14:16:29;;;;;;;11.80;3.85;;;;;;;12.51;52.88;102221.94;5023564;28;20049;-83
2021/04/03 14:18:54;;;;;;;10.38;3.60;;;;;;;12.34;54.40;102216.31;5033210;28;20112;-82
2021/04/03 14:21:19;;;;;;;14.52;3.78;;;;;;;12.25;52.06;102219.81;5058362;28;20072;-76
2021/04/03 14:23:45;;;;;;;10.00;2.92;;;;;;;12.22;55.03;102214.72;5045687;28;20060;-79
2021/04/03 14:26:10;;;;;;;14.30;3.90;;;;;;;12.13;53.31;102220.94;5024519;28;20041;-80
2021/04/03 14:28:35;;;;;;;10.77;3.97;;;;;;;12.41;54.59;102213.88;5026450;28;20073;-76
2021/04/03 14:31:01;;;;;;;13.57;4.07;;;;;;;12.85;55.78;102196.25;5043762;28;20033;-76
2021/04/03 14:33:26;;;;;;;12.20;4.13;;;;;;;12.75;53.85;102195.44;5042303;28;20045;-87
2021/04/03 14:35:54;;;;;;;13.55;3.88;;;;;;;12.48;53.04;102190.78;5040419;28;20044;-82
2021/04/03 14:38:19;;;;;;;16.98;5.95;;;;;;;12.37;53.87;102194.50;5029399;28;20049;-83
2021/04/03 14:40:45;;;;;;;16.00;4.78;;;;;;;12.30;54.41;102190.66;5022084;28;20041;-86
2021/04/03 14:43:11;;;;;;;12.45;3.25;;;;;;;12.11;54.06;102186.13;5007977;28;20033;-82
2021/04/03 14:45:37;;;;;;;11.38;3.65;;;;;;;12.06;53.52;102183.00;5022714;28;20041;-88
2021/04/03 14:48:03;;;;;;;14.93;4.53;;;;;;;11.98;56.55;102182.00;5025034;28;20037;-82
2021/04/03 14:50:28;;;;;;;15.18;4.05;;;;;;;11.93;56.56;102188.63;5037426;28;20095;-84
2021/04/03 14:52:54;;;;;;;14.82;4.00;;;;;;;12.04;57.58;102181.44;5038716;28;20124;-82
2021/04/03 14:55:19;;;;;;;17.45;4.60;;;;;;;12.11;54.68;102179.88;5044218;28;20049;-76
2021/04/03 14:57:45;;;;;;;14.13;3.88;;;;;;;12.52;55.93;102177.91;5043023;28;20048;-81
2021/04/03 15:00:11;;;;;;;15.40;4.28;;;;;;;12.74;54.77;102177.56;5042560;28;20095;-82
2021/04/03 15:02:37;;;;;;;18.30;3.63;;;;;;;12.76;54.79;102172.03;5044778;28;20080;-87
2021/04/03 15:05:04;;;;;;;13.45;4.03;;;;;;;12.87;55.52;102172.72;5044144;28;20091;-82
2021/04/03 15:07:32;;;;;;;17.20;4.20;;;;;;;13.03;55.95;102166.72;5042307;28;20037;-90
2021/04/03 15:09:57;;;;;;;11.55;3.47;;;;;;;12.99;51.55;102153.69;5044330;28;20040;-89
2021/04/03 15:12:22;;;;;;;14.65;4.43;;;;;;;12.65;54.22;102162.28;5040243;28;20394;-86
2021/04/03 15:14:48;;;;;;;12.60;4.15;;;;;;;12.40;53.55;102167.28;5049866;28;20528;-77
2021/04/03 15:17:16;;;;;;;13.88;3.78;;;;;;;12.35;54.55;102161.47;5040100;28;20037;-91
2021/04/03 15:19:48;;;;;;;16.42;4.00;;;;;;;12.34;55.33;102161.59;5040229;28;20094;-79
2021/04/03 15:22:14;;;;;;;11.30;3.40;;;;;;;12.36;57.88;102162.31;5029039;28;20049;-79
2021/04/03 15:24:39;;;;;;;14.15;4.03;;;;;;;12.34;54.67;102162.47;5039534;28;20049;-80
2021/04/03 15:27:06;;;;;;;16.90;4.43;;;;;;;12.17;52.70;102157.81;5026506;28;20072;-86
2021/04/03 15:29:32;;;;;;;13.20;4.20;;;;;;;12.21;55.72;102158.38;5027586;28;20041;-86
2021/04/03 15:31:57;;;;;;;12.60;4.05;;;;;;;12.53;55.66;102160.75;5026138;28;20045;-80
2021/04/03 15:34:22;;;;;;;14.32;4.50;;;;;;;12.42;53.77;102159.03;5026095;28;20549;-78
2021/04/03 15:36:49;;;;;;;9.93;3.53;;;;;;;12.46;55.91;102162.28;5028259;28;20050;-85
2021/04/03 15:39:16;;;;;;;12.07;4.00;;;;;;;12.51;56.18;102155.50;5011011;28;20041;-83
2021/04/03 15:41:44;;;;;;;14.40;4.70;;;;;;;12.68;56.26;102158.44;5011640;28;20494;-82
2021/04/03 15:44:09;;;;;;;14.65;4.13;;;;;;;12.69;52.11;102152.06;5028248;28;20041;-82
2021/04/03 15:46:41;;;;;;;16.10;3.88;;;;;;;12.70;53.65;102162.69;5026055;28;20049;-80
2021/04/03 15:49:08;;;;;;;11.73;3.42;;;;;;;12.84;54.60;102159.53;5028055;28;20037;-84
2021/04/03 15:51:34;;;;;;;16.80;4.05;;;;;;;13.03;55.31;102163.16;5030866;28;20041;-79
2021/04/03 15:54:05;;;;;;;13.68;3.70;;;;;;;13.17;53.90;102151.91;5045565;28;20343;-84
2021/04/03 15:56:31;;;;;;;13.57;4.22;;;;;;;13.07;52.87;102159.19;5020431;28;20385;-80
2021/04/03 15:58:57;;;;;;;10.55;3.55;;;;;;;12.88;54.29;102163.63;5021762;28;20042;-76
2021/04/03 16:01:22;;;;;;;12.68;4.30;;;;;;;12.94;54.81;102172.97;5017570;28;20037;-78
2021/04/03 16:03:48;;;;;;;13.70;3.92;;;;;;;12.82;55.32;102164.22;5015077;28;20055;-80
2021/04/03 16:06:16;;;;;;;17.27;6.07;;;;;;;12.50;57.50;102169.94;5044801;28;20081;-85
2021/04/03 16:08:41;;;;;;;16.65;4.43;;;;;;;12.63;56.93;102161.59;5034257;28;20128;-79
2021/04/03 16:11:12;;;;;;;16.17;4.10;;;;;;;12.70;56.42;102164.53;5007786;28;20132;-82
2021/04/03 16:13:39;;;;;;;18.30;5.75;;;;;;;12.61;55.60;102160.88;5026226;28;20065;-88
2021/04/03 16:16:11;;;;;;;35.00;14.88;;;;;;;12.63;56.42;102154.34;5040938;28;20058;-84
2021/04/03 16:18:38;;;;;;;17.95;7.78;;;;;;;12.35;56.65;102155.25;5042906;28;20370;-79
2021/04/03 16:21:04;;;;;;;13.65;4.63;;;;;;;12.12;57.08;102166.28;5033971;28;20044;-86
2021/04/03 16:23:31;;;;;;;22.30;9.93;;;;;;;11.93;57.90;102161.72;5033402;28;20041;-80
2021/04/03 16:26:00;;;;;;;19.02;5.57;;;;;;;11.75;56.73;102155.31;5033274;28;20037;-77
2021/04/03 16:28:25;;;;;;;;;;;;;;;11.60;59.17;102162.06;5033432;28;20557;-87
2021/04/03 16:30:51;;;;;;;15.45;5.00;;;;;;;11.37;57.91;102167.66;5034443;28;19944;-84
2021/04/03 16:33:17;;;;;;;22.15;7.72;;;;;;;11.28;59.78;102163.94;5032695;28;20048;-81
2021/04/03 16:35:42;;;;;;;16.33;6.43;;;;;;;11.20;60.08;102163.78;5031814;28;20045;-77
2021/04/03 16:38:08;;;;;;;15.80;4.50;;;;;;;11.16;60.18;102173.06;5020049;28;20046;-82
2021/04/03 16:40:33;;;;;;;22.73;9.38;;;;;;;11.30;60.38;102164.66;5034777;28;20038;-78
2021/04/03 16:43:00;;;;;;;13.43;5.00;;;;;;;11.44;60.14;102167.97;5033072;28;20159;-84
2021/04/03 16:45:26;;;;;;;15.70;5.03;;;;;;;11.42;58.36;102178.00;5040681;28;20103;-83
2021/04/03 16:47:52;;;;;;;19.75;7.75;;;;;;;11.35;57.86;102169.63;5041221;28;20100;-83
2021/04/03 16:50:21;;;;;;;12.35;4.53;;;;;;;11.21;58.42;102175.38;5028195;28;20044;-78
2021/04/03 16:52:47;;;;;;;19.67;5.10;;;;;;;11.10;59.61;102167.38;5031954;28;20045;-86
2021/04/03 16:55:14;;;;;;;17.30;6.57;;;;;;;11.05;59.24;102171.34;5029068;28;20148;-82
2021/04/03 16:57:40;;;;;;;16.77;5.53;;;;;;;10.82;60.84;102161.75;5031701;28;20116;-78
2021/04/03 17:00:07;;;;;;;16.30;4.90;;;;;;;10.73;58.82;102166.09;5034728;28;20038;-83
2021/04/03 17:02:33;;;;;;;13.23;4.72;;;;;;;10.66;60.64;102166.72;5030581;28;20281;-82
2021/04/03 17:05:01;;;;;;;16.80;4.63;;;;;;;10.53;61.99;102169.59;5030709;28;20128;-87
2021/04/03 17:07:26;;;;;;;14.65;5.28;;;;;;;10.49;61.21;102169.00;5030206;28;20042;-79
2021/04/03 17:09:52;;;;;;;15.43;4.47;;;;;;;10.33;61.51;102169.47;5031215;28;20099;-82
2021/04/03 17:12:17;;;;;;;21.45;6.95;;;;;;;10.31;62.27;102171.41;5028289;28;20068;-81
2021/04/03 17:14:49;;;;;;;16.65;4.97;;;;;;;10.31;60.98;102173.25;5034195;28;20113;-77
2021/04/03 17:17:14;;;;;;;17.13;5.57;;;;;;;10.21;61.39;102178.50;5032579;28;20037;-82
2021/04/03 17:19:40;;;;;;;17.08;4.35;;;;;;;10.14;62.71;102180.00;5032520;28;20052;-82
2021/04/03 17:22:08;;;;;;;17.02;6.25;;;;;;;10.08;62.95;102176.00;5035518;28;20099;-77
2021/04/03 17:24:35;;;;;;;18.88;5.72;;;;;;;9.93;62.54;102183.47;5030607;28;20115;-84
2021/04/03 17:27:03;;;;;;;16.63;5.28;;;;;;;9.91;63.60;102179.22;5030459;28;20045;-76
2021/04/03 17:29:29;;;;;;;19.98;5.85;;;;;;;9.84;63.49;102178.00;5046255;28;20398;-79
2021/04/03 17:31:55;;;;;;;20.90;6.60;;;;;;;9.76;61.67;102175.13;5035219;28;20044;-76
2021/04/03 17:34:20;;;;;;;14.40;5.20;;;;;;;9.66;63.46;102183.88;5033617;28;20045;-80
2021/04/03 17:36:47;;;;;;;12.48;4.45;;;;;;;9.55;61.96;102185.72;5022580;28;20050;-77
2021/04/03 17:39:12;;;;;;;17.88;5.63;;;;;;;9.52;63.59;102184.16;5022238;28;20052;-81
2021/04/03 17:41:37;;;;;;;18.02;7.50;;;;;;;9.42;63.17;102188.56;5029954;28;20050;-82
2021/04/03 17:44:04;;;;;;;21.15;7.15;;;;;;;9.36;64.02;102189.91;5015560;28;20120;-79
2021/04/03 17:46:31;;;;;;;20.38;7.72;;;;;;;9.25;64.94;102188.06;5032114;28;20507;-80
2021/04/03 17:48:57;;;;;;;16.05;4.53;;;;;;;9.16;64.97;102188.81;5042909;28;20406;-79
2021/04/03 17:51:22;;;;;;;25.23;5.07;;;;;;;9.06;63.94;102189.63;5034909;28;20049;-86
2021/04/03 17:53:48;;;;;;;18.90;5.70;;;;;;;8.95;65.42;102187.81;5051827;28;20052;-88
2021/04/03 17:56:14;;;;;;;20.42;6.53;;;;;;;8.90;66.75;102187.31;5033777;28;20543;-76
2021/04/03 17:58:40;;;;;;;17.67;5.63;;;;;;;8.82;66.48;102186.06;5028721;28;20041;-79
2021/04/03 18:01:13;;;;;;;18.95;6.25;;;;;;;8.66;66.97;102188.25;5026800;28;20050;-77
2021/04/03 18:03:39;;;;;;;19.95;8.52;;;;;;;8.56;66.85;102189.91;5017835;28;20095;-84
2021/04/03 18:06:05;;;;;;;21.65;5.97;;;;;;;8.45;67.59;102187.19;5036669;28;20088;-77
2021/04/03 18:08:31;;;;;;;15.82;4.85;;;;;;;8.43;67.36;102194.47;5036539;28;20049;-77
2021/04/03 18:10:56;;;;;;;21.70;7.90;;;;;;;8.33;66.94;102199.66;5013220;28;20041;-78
2021/04/03 18:13:22;;;;;;;16.42;5.85;;;;;;;8.19;67.88;102197.16;5027772;28;20046;-79
2021/04/03 18:15:49;;;;;;;14.23;4.85;;;;;;;8.07;66.74;102207.78;5037241;28;20053;-76
2021/04/03 18:18:15;;;;;;;19.58;5.70;;;;;;;8.08;69.19;102205.97;5046814;28;21333;-76
2021/04/03 18:20:41;;;;;;;19.00;5.20;;;;;;;8.06;68.66;102198.06;5035969;28;20029;-79
2021/04/03 18:23:07;;;;;;;16.63;5.13;;;;;;;7.88;69.43;102200.28;5036964;28;20040;-80
2021/04/03 18:25:32;;;;;;;17.95;6.05;;;;;;;7.83;69.53;102213.13;5029375;28;20045;-77
2021/04/03 18:27:58;;;;;;;18.13;5.75;;;;;;;7.76;70.15;102217.19;5021368;28;20092;-76
2021/04/03 18:30:25;;;;;;;23.08;6.32;;;;;;;7.62;69.65;102212.00;5021861;28;20049;-82
2021/04/03 18:32:51;;;;;;;17.88;5.85;;;;;;;7.64;70.81;102218.09;5032668;28;20036;-80
2021/04/03 18:35:18;;;;;;;19.02;5.97;;;;;;;7.53;71.06;102223.34;5009399;28;20045;-82
2021/04/03 18:37:44;;;;;;;19.75;5.70;;;;;;;7.42;70.33;102224.09;5021969;28;20184;-82
2021/04/03 18:40:13;;;;;;;19.58;5.55;;;;;;;7.36;71.19;102224.53;5026783;28;20688;-82
2021/04/03 18:42:39;;;;;;;19.95;4.93;;;;;;;7.29;72.08;102223.28;5026613;28;20048;-83
2021/04/03 18:45:05;;;;;;;17.08;4.90;;;;;;;7.23;71.06;102229.91;5016905;28;20041;-85
2021/04/03 18:47:31;;;;;;;18.20;5.13;;;;;;;7.13;71.26;102231.50;5022145;28;20052;-81
2021/04/03 18:49:57;;;;;;;17.05;6.18;;;;;;;7.06;71.74;102228.41;5018201;28;20038;-79
2021/04/03 18:52:22;;;;;;;21.83;5.95;;;;;;;6.94;71.27;102245.28;5016944;28;20188;-77
2021/04/03 18:54:48;;;;;;;26.27;11.57;;;;;;;6.94;71.60;102245.28;5021934;28;20490;-88
2021/04/03 18:57:13;;;;;;;22.88;6.53;;;;;;;6.90;71.32;102244.59;5009455;28;20496;-83
2021/04/03 18:59:38;;;;;;;22.65;7.95;;;;;;;6.80;71.98;102245.34;5025025;28;20026;-81
2021/04/03 19:02:04;;;;;;;30.15;13.85;;;;;;;6.76;73.44;102247.34;5039339;28;20076;-77
2021/04/03 19:04:29;;;;;;;19.70;6.18;;;;;;;6.71;73.25;102249.50;5036357;28;20478;-82
2021/04/03 19:06:55;;;;;;;23.35;8.30;;;;;;;6.66;72.88;102254.28;5040506;28;20068;-79
2021/04/03 19:09:20;;;;;;;20.70;6.50;;;;;;;6.58;72.77;102249.44;5036405;28;20041;-81
2021/04/03 19:11:47;;;;;;;18.02;5.43;;;;;;;6.55;72.82;102260.31;5037714;28;20095;-83
2021/04/03 19:14:13;;;;;;;19.40;7.35;;;;;;;6.51;71.17;102267.69;5051418;28;20049;-79
2021/04/03 19:16:38;;;;;;;16.55;5.30;;;;;;;6.47;71.73;102260.88;5032689;28;20041;-83
2021/04/03 19:19:03;;;;;;;16.70;5.80;;;;;;;6.45;72.07;102270.75;5033545;28;20056;-83
2021/04/03 19:21:29;;;;;;;20.50;6.40;;;;;;;6.41;73.25;102258.56;5038842;28;20049;-80
2021/04/03 19:23:55;;;;;;;20.40;5.57;;;;;;;6.30;72.10;102255.75;5036594;28;20364;-79
2021/04/03 19:26:21;;;;;;;15.93;5.43;;;;;;;6.24;71.97;102265.03;5033875;28;20033;-80
2021/04/03 19:28:47;;;;;;;18.83;6.05;;;;;;;6.18;73.06;102261.91;5000547;28;20482;-78
2021/04/03 19:31:12;;;;;;;20.52;6.90;;;;;;;6.14;73.18;102271.06;5032183;28;20053;-76
2021/04/03 19:33:40;;;;;;;17.55;6.35;;;;;;;6.11;73.03;102277.44;5021141;28;20058;-83
2021/04/03 19:36:06;;;;;;;14.85;7.57;;;;;;;6.07;74.24;102276.78;5022400;28;20100;-77
2021/04/03 19:38:31;;;;;;;23.33;6.47;;;;;;;6.07;73.18;102275.91;5042173;28;20132;-77
2021/04/03 19:40:57;;;;;;;22.95;6.18;;;;;;;5.96;73.49;102268.63;5025523;28;20255;-85
2021/04/03 19:43:22;;;;;;;43.97;21.30;;;;;;;5.86;73.41;102272.78;5031539;28;20065;-85
2021/04/03 19:45:48;;;;;;;22.30;7.75;;;;;;;5.81;74.05;102266.88;5013342;28;20070;-83
2021/04/03 19:48:13;;;;;;;25.95;8.52;;;;;;;5.85;73.74;102265.75;4999784;28;20060;-84
2021/04/03 19:50:39;;;;;;;18.20;6.43;;;;;;;5.76;74.68;102269.00;5022074;28;20048;-84
2021/04/03 19:53:04;;;;;;;21.85;6.63;;;;;;;5.69;73.92;102271.19;5019310;28;20420;-81
2021/04/03 19:55:30;;;;;;;18.38;5.95;;;;;;;5.64;74.94;102268.84;5026529;28;20042;-86
2021/04/03 19:57:55;;;;;;;22.27;6.18;;;;;;;5.56;74.13;102265.78;5014408;28;20102;-85
2021/04/03 20:00:21;;;;;;;20.20;4.97;;;;;;;5.53;74.63;102270.47;4998781;28;20069;-80
2021/04/03 20:02:46;;;;;;;16.05;4.93;;;;;;;5.63;77.10;102269.75;5043733;28;20657;-85
2021/04/03 20:05:13;;;;;;;18.08;6.32;;;;;;;5.56;76.08;102265.78;5037331;28;20120;-79
2021/04/03 20:07:39;;;;;;;24.65;5.72;;;;;;;5.54;76.68;102262.34;5027795;28;20142;-81
2021/04/03 20:10:05;;;;;;;18.88;7.40;;;;;;;5.51;76.73;102265.22;5013849;28;20423;-80
2021/04/03 20:12:31;;;;;;;20.98;6.85;;;;;;;5.37;75.19;102259.88;5050708;28;20045;-76
2021/04/03 20:14:56;;;;;;;20.77;6.57;;;;;;;5.36;76.81;102268.84;5031960;28;20677;-80
2021/04/03 20:17:22;;;;;;;23.25;6.20;;;;;;;5.29;76.02;102263.00;5029122;28;20042;-79
2021/04/03 20:19:47;;;;;;;24.38;6.35;;;;;;;5.19;75.42;102268.03;5049083;28;20037;-80
2021/04/03 20:22:13;;;;;;;22.98;5.60;;;;;;;5.22;77.23;102276.81;5029811;28;20045;-87
2021/04/03 20:24:38;;;;;;;20.05;5.97;;;;;;;5.31;76.91;102274.44;5025488;28;20045;-79
2021/04/03 20:27:04;;;;;;;20.25;6.95;;;;;;;5.15;77.33;102284.28;5037792;28;20528;-78
2021/04/03 20:29:29;;;;;;;21.00;5.80;;;;;;;5.05;77.08;102286.66;5019372;28;20045;-83
2021/04/03 20:31:55;;;;;;;17.08;5.22;;;;;;;4.97;77.79;102279.13;5008769;28;20050;-82
2021/04/03 20:34:20;;;;;;;23.15;6.43;;;;;;;4.98;78.41;102274.69;4994060;28;20052;-80
2021/04/03 20:36:46;;;;;;;20.90;5.28;;;;;;;4.94;77.50;102270.47;5011960;28;20064;-77
2021/04/03 20:39:11;;;;;;;19.15;5.53;;;;;;;4.89;77.80;102276.09;5011129;28;20045;-79
2021/04/03 20:41:37;;;;;;;20.02;6.32;;;;;;;4.86;78.10;102284.25;5006394;28;20045;-86
2021/04/03 20:44:03;;;;;;;16.58;5.45;;;;;;;4.85;78.70;102281.66;5017966;28;20041;-80
2021/04/03 20:46:29;;;;;;;19.50;5.63;;;;;;;4.90;79.22;102276.94;5031454;28;20072;-82
2021/04/03 20:48:54;;;;;;;28.52;5.97;;;;;;;4.77;78.85;102289.22;5031912;28;20477;-76
2021/04/03 20:51:20;;;;;;;24.65;7.57;;;;;;;4.61;78.46;102279.50;5029266;28;20052;-84
2021/04/03 20:53:46;;;;;;;23.13;6.20;;;;;;;4.58;78.40;102277.03;5030772;28;20056;-80
2021/04/03 20:56:11;;;;;;;17.30;5.85;;;;;;;4.61;78.12;102274.19;5027019;28;20037;-85
2021/04/03 20:58:37;;;;;;;18.85;6.10;;;;;;;4.61;78.02;102281.31;5030634;28;20045;-85
2021/04/03 21:01:03;;;;;;;28.92;9.82;;;;;;;4.62;79.60;102283.88;5031227;28;20034;-85
2021/04/03 21:03:28;;;;;;;30.88;11.98;;;;;;;4.57;79.70;102275.28;5029563;28;20132;-82
2021/04/03 21:05:54;;;;;;;35.17;11.32;;;;;;;4.44;78.20;102282.28;5016711;28;20061;-84
2021/04/03 21:08:19;;;;;;;55.50;20.55;;;;;;;4.42;79.57;102286.81;5008937;28;20038;-84
2021/04/03 21:10:45;;;;;;;27.25;10.32;;;;;;;4.45;79.61;102282.19;5007008;28;20152;-84
2021/04/03 21:13:10;;;;;;;76.90;33.15;;;;;;;4.46;79.61;102278.59;5012964;28;20091;-81
2021/04/03 21:15:36;;;;;;;24.67;9.63;;;;;;;4.41;80.38;102283.31;5030249;28;20037;-80
2021/04/03 21:18:01;;;;;;;19.25;7.38;;;;;;;4.46;80.27;102291.88;5046115;28;20037;-82
2021/04/03 21:20:27;;;;;;;20.75;6.07;;;;;;;4.42;79.57;102286.81;5028660;28;20145;-81
2021/04/03 21:22:52;;;;;;;23.85;7.50;;;;;;;4.45;80.54;102286.66;5028997;28;20038;-79
2021/04/03 21:25:18;;;;;;;22.98;6.53;;;;;;;4.38;79.14;102287.97;5019950;28;20041;-81
2021/04/03 21:27:43;;;;;;;22.00;6.00;;;;;;;4.44;79.60;102288.44;5030417;28;20044;-81
2021/04/03 21:30:10;;;;;;;24.15;5.78;;;;;;;4.48;80.19;102286.47;5020211;28;20042;-87
2021/04/03 21:32:40;;;;;;;16.88;5.90;;;;;;;4.50;79.04;102284.59;5014169;28;20046;-81
2021/04/03 21:35:06;;;;;;;19.13;5.05;;;;;;;4.50;78.71;102288.09;5011048;28;20524;-85
2021/04/03 21:37:31;;;;;;;16.23;5.50;;;;;;;4.52;78.00;102288.03;5006423;28;20045;-80
2021/04/03 21:39:56;;;;;;;15.75;4.40;;;;;;;4.54;78.40;102294.09;5029589;28;20041;-80
2021/04/03 21:42:22;;;;;;;17.45;4.95;;;;;;;4.59;77.53;102289.38;5009723;28;20459;-82
2021/04/03 21:44:47;;;;;;;16.55;4.65;;;;;;;4.68;77.75;102287.97;5030648;28;20469;-83
2021/04/03 21:47:13;;;;;;;18.25;5.07;;;;;;;4.76;76.22;102288.38;5028084;28;20038;-79
2021/04/03 21:49:38;;;;;;;18.55;5.80;;;;;;;4.74;78.67;102283.13;5029877;28;20119;-77
2021/04/03 21:52:04;;;;;;;16.30;5.30;;;;;;;4.71;77.94;102285.13;5012472;28;20124;-82
2021/04/03 21:54:29;;;;;;;20.65;5.78;;;;;;;4.77;77.45;102275.94;5028089;28;20037;-88
2021/04/03 21:56:55;;;;;;;25.23;6.80;;;;;;;4.78;77.85;102273.19;5045711;28;20486;-80
2021/04/03 21:59:20;;;;;;;16.65;4.90;;;;;;;4.86;77.22;102270.06;5026609;28;20098;-78
2021/04/03 22:01:46;;;;;;;18.80;5.18;;;;;;;4.89;76.82;102268.09;5030223;28;20545;-84
2021/04/03 22:04:11;;;;;;;22.25;5.85;;;;;;;4.96;76.64;102271.25;5025846;28;20105;-80
2021/04/03 22:06:36;;;;;;;16.05;4.72;;;;;;;4.98;75.21;102274.69;5030711;28;20140;-85
2021/04/03 22:09:04;;;;;;;20.80;5.22;;;;;;;5.02;74.89;102270.88;5032104;28;20481;-78
2021/04/03 22:11:33;;;;;;;23.58;5.68;;;;;;;5.08;74.89;102272.31;5044606;28;20056;-87
2021/04/03 22:13:58;;;;;;;15.13;5.30;;;;;;;5.11;73.80;102270.31;5028381;28;20082;-83
2021/04/03 22:16:30;;;;;;;20.60;6.18;;;;;;;5.17;74.95;102269.09;5029846;28;20037;-82
2021/04/03 22:18:56;;;;;;;17.33;6.22;;;;;;;5.15;73.87;102276.28;5029050;28;20625;-88
2021/04/03 22:21:21;;;;;;;24.48;7.82;;;;;;;5.15;74.54;102271.84;5025348;28;20065;-80
2021/04/03 22:23:47;;;;;;;28.90;9.32;;;;;;;5.22;74.93;102267.00;5020620;28;20087;-87
2021/04/03 22:26:12;;;;;;;22.92;7.68;;;;;;;5.20;73.80;102271.56;5030480;28;20052;-82
2021/04/03 22:28:38;;;;;;;20.27;5.10;;;;;;;5.25;73.81;102271.28;5027555;28;20049;-88
2021/04/03 22:31:04;;;;;;;26.10;6.30;;;;;;;5.23;74.28;102274.03;5029160;28;20099;-83
2021/04/03 22:33:29;;;;;;;17.20;4.88;;;;;;;5.27;73.31;102258.75;5032204;28;20061;-86
2021/04/03 22:35:55;;;;;;;16.10;5.72;;;;;;;5.32;73.86;102259.31;5034344;28;20398;-80
2021/04/03 22:38:21;;;;;;;23.52;5.72;;;;;;;5.31;73.88;102265.59;5039834;28;20470;-80
2021/04/03 22:40:46;;;;;;;21.85;5.10;;;;;;;5.32;73.66;102270.84;5033812;28;20099;-86
2021/04/03 22:43:12;;;;;;;22.40;5.65;;;;;;;5.31;73.62;102263.78;5023002;28;20068;-83
2021/04/03 22:45:38;;;;;;;21.58;5.13;;;;;;;5.25;72.96;102265.97;5032789;28;20048;-80
2021/04/03 22:48:04;;;;;;;20.73;5.47;;;;;;;5.24;73.52;102264.28;5017963;28;20034;-82
2021/04/03 22:50:31;;;;;;;17.75;6.20;;;;;;;5.23;72.97;102249.22;5039309;28;20042;-79
2021/04/03 22:52:57;;;;;;;17.80;4.72;;;;;;;5.28;73.34;102257.78;5032035;28;20045;-79
2021/04/03 22:55:23;;;;;;;15.57;5.57;;;;;;;5.26;72.34;102251.69;5030990;28;20098;-86
2021/04/03 22:57:48;;;;;;;25.85;7.30;;;;;;;5.26;72.25;102247.22;5032893;28;20060;-80
2021/04/03 23:00:21;;;;;;;20.48;5.10;;;;;;;5.28;72.29;102261.31;5028563;28;20191;-86
2021/04/03 23:02:47;;;;;;;11.65;3.60;;;;;;;5.30;72.18;102258.56;5044976;28;20057;-78
2021/04/03 23:05:13;;;;;;;16.58;3.70;;;;;;;5.28;71.88;102257.78;5030816;28;20127;-82
2021/04/03 23:07:39;;;;;;;18.85;4.80;;;;;;;5.30;71.29;102258.56;5046890;28;20041;-88
2021/04/03 23:10:06;;;;;;;18.52;4.57;;;;;;;5.25;71.51;102261.50;5026835;28;20045;-82
2021/04/03 23:12:31;;;;;;;22.10;6.95;;;;;;;5.25;71.06;102260.66;5029261;28;20053;-83
2021/04/03 23:14:57;;;;;;;22.20;6.45;;;;;;;5.27;71.80;102264.94;5047601;28;20046;-80
2021/04/03 23:17:23;;;;;;;22.05;5.65;;;;;;;5.25;71.86;102250.84;5029460;28;20030;-83
2021/04/03 23:19:48;;;;;;;19.80;5.47;;;;;;;5.23;71.39;102251.88;5028538;28;20037;-82
2021/04/03 23:22:14;;;;;;;14.27;4.03;;;;;;;5.27;71.42;102250.78;5031582;28;20482;-82
2021/04/03 23:24:39;;;;;;;14.90;4.28;;;;;;;5.22;71.28;102258.16;5027128;28;20121;-77
2021/04/03 23:27:05;;;;;;;17.15;3.67;;;;;;;5.25;71.66;102255.31;5010205;28;20474;-81
2021/04/03 23:29:30;;;;;;;18.20;4.72;;;;;;;5.20;71.56;102253.78;5027140;28;20136;-88
2021/04/03 23:31:55;;;;;;;16.05;4.35;;;;;;;5.22;71.92;102256.38;5032115;28;20445;-80
2021/04/03 23:34:21;;;;;;;13.82;3.78;;;;;;;5.26;72.01;102257.03;5014291;28;20042;-86
2021/04/03 23:36:46;;;;;;;14.38;3.47;;;;;;;5.21;72.05;102265.31;5037449;28;20121;-80
2021/04/03 23:39:11;;;;;;;16.92;3.88;;;;;;;5.24;71.36;102261.59;5028232;28;20038;-82
2021/04/03 23:41:40;;;;;;;15.15;4.15;;;;;;;5.29;71.81;102259.50;5025260;28;20180;-86
2021/04/03 23:44:07;;;;;;;14.15;4.10;;;;;;;5.24;71.92;102259.78;5013578;28;20042;-78
2021/04/03 23:46:33;;;;;;;16.20;4.63;;;;;;;5.27;72.43;102261.41;5036589;28;20037;-82
2021/04/03 23:48:58;;;;;;;16.52;4.68;;;;;;;5.29;72.12;102257.69;5035501;28;20045;-82
2021/04/03 23:51:23;;;;;;;19.38;4.53;;;;;;;5.27;72.56;102256.09;5029814;28;20057;-88
2021/04/03 23:53:49;;;;;;;19.20;4.85;;;;;;;5.23;72.64;102257.22;5026997;28;20056;-85
2021/04/03 23:56:14;;;;;;;16.77;4.95;;;;;;;5.19;71.85;102257.41;5028086;28;20048;-82
2021/04/03 23:58:40;;;;;;;15.77;4.15;;;;;;;5.23;72.04;102252.75;5044431;28;20033;-79
